Livona, North Dakota
Current Conditions -  °F | °C
As of 10:52 AM on Friday 19 Dec 2014 (Local Time) from KBIS Reporting Station
Clear Clear  
Wind Chill: 25°   Ceiling: Unl
Heat Index: 25°   Visibility: 8mi
Dew Point: 23°   Wind: 3mph
Humidity: 92%   Direction: 130°SE
Pressure: 29.97"   Gusts: NA
Location:  46.7287°N, 100.616°W
Report Text: KBIS 191652Z 13003KT 8SM CLR M04/M05 A2997 RMK AO2 SLP172 T10391050
Loading
Personal Weather Stations






























Interactive Weather Map New forecast layout! Learn more

10-Day Weather Forecast

Advertisements
Track Severe Weather on mobile